Terminal Aerodrome Forecast
Issued by NWS

Home | Current Version | Previous Version | Text Only | Print | Product List | Glossary Off
Versions: 1 2 3 4 5 6 7 8 9 10 11 12 13 14 15 16 17 18 19 20 21 22 23 24 25 26 27 28 29 30 31 32 33 34 35 36 37 38 39 40 41 42 43 44
000 FTUS41 KBOX 271724 TAFBED TAF KBED 271724Z 2718/2818 VRB03KT 3SM -RA BR BKN005 OVC010 FM272200 35004KT 3SM BR VCSH OVC005 FM280100 33004KT 3SM BR OVC004 FM280800 00000KT 4SM BR OVC006 FM281300 VRB03KT 2SM BR OVC004 FM281500 09004KT 2SM -DZ BR OVC003=

USA.gov is the U.S. government's official web portal to all federal, state and local government web resources and services.